Time;durP1;ratioP1;P1;durP2;ratioP2;P2;SDS_P1;SDS_P2;PMS_P1;PMS_P2;Temp;Humidity;BMP_temperature;BMP_pressure;BME280_temperature;BME280_humidity;BME280_pressure;Samples;Min_cycle;Max_cycle;Signal;HPM_P1;HPM_P2
2022/06/06 00:00:45;;;;;;;37.47;22.67;;;;;;;16.78;87.36;99629.44;5043701;28;20087;-81
2022/06/06 00:03:11;;;;;;;35.75;21.42;;;;;;;16.71;87.40;99631.00;5043581;28;20064;-82
2022/06/06 00:05:40;;;;;;;43.70;26.75;;;;;;;16.62;86.80;99633.69;5044147;28;20059;-82
2022/06/06 00:08:06;;;;;;;38.42;23.67;;;;;;;16.61;87.27;99630.13;5042146;28;20400;-82
2022/06/06 00:10:31;;;;;;;42.85;23.83;;;;;;;16.54;87.18;99626.97;5043286;28;20040;-81
2022/06/06 00:12:56;;;;;;;37.10;22.40;;;;;;;16.57;86.61;99620.84;5042742;28;20040;-80
2022/06/06 00:15:22;;;;;;;39.23;23.53;;;;;;;16.51;86.93;99622.91;5043583;28;20761;-82
2022/06/06 00:17:47;;;;;;;40.95;22.48;;;;;;;16.50;86.22;99625.94;5043002;28;20258;-83
2022/06/06 00:20:13;;;;;;;39.05;23.08;;;;;;;16.57;86.04;99621.69;5043947;28;20031;-82
2022/06/06 00:22:38;;;;;;;33.05;22.05;;;;;;;16.61;85.62;99635.63;5043631;28;20039;-82
2022/06/06 00:25:04;;;;;;;43.03;25.03;;;;;;;16.50;85.53;99631.44;5043346;28;20108;-82
2022/06/06 00:27:42;;;;;;;47.65;28.15;;;;;;;16.43;85.70;99631.88;5044064;28;20270;-82
2022/06/06 00:30:08;;;;;;;40.20;23.55;;;;;;;16.43;85.20;99632.69;5043767;28;20041;-83
2022/06/06 00:35:20;;;;;;;41.08;21.90;;;;;;;16.39;84.42;99639.13;5043487;28;20043;-82
2022/06/06 00:37:46;;;;;;;38.38;23.77;;;;;;;16.32;84.25;99628.53;5043096;28;20039;-82
2022/06/06 00:40:13;;;;;;;35.40;21.00;;;;;;;16.28;84.24;99635.75;5046573;28;20042;-83
2022/06/06 00:42:39;;;;;;;33.72;19.92;;;;;;;16.27;83.34;99634.13;5060289;28;20081;-82
2022/06/06 00:45:33;;;;;;;35.85;19.17;;;;;;;16.26;83.12;99632.50;5043721;28;20032;-81
2022/06/06 00:48:14;;;;;;;36.85;20.45;;;;;;;16.25;83.23;99639.94;5043066;28;20047;-82
2022/06/06 00:51:04;;;;;;;34.78;21.92;;;;;;;16.26;83.12;99638.00;5043338;28;20048;-82
2022/06/06 00:53:41;;;;;;;34.63;20.92;;;;;;;16.25;82.53;99641.88;5042961;28;20032;-83
2022/06/06 00:56:14;;;;;;;28.50;17.50;;;;;;;16.20;82.31;99634.53;5042704;28;20025;-83
2022/06/06 00:58:40;;;;;;;28.17;17.05;;;;;;;16.14;82.29;99638.50;5043165;28;20459;-83
2022/06/06 01:01:06;;;;;;;36.30;18.73;;;;;;;16.18;82.29;99643.09;5042987;28;20032;-83
2022/06/06 01:03:36;;;;;;;37.38;18.42;;;;;;;16.13;82.97;99645.94;5041843;28;20527;-82
2022/06/06 01:06:01;;;;;;;35.33;20.05;;;;;;;16.14;82.38;99638.50;5043291;28;20029;-82
2022/06/06 01:08:27;;;;;;;37.00;19.70;;;;;;;16.18;82.46;99637.59;5042507;28;20029;-82
2022/06/06 01:10:53;;;;;;;35.25;20.55;;;;;;;16.10;82.27;99646.56;5042178;28;20031;-83
2022/06/06 01:13:22;;;;;;;33.03;19.73;;;;;;;16.19;82.06;99643.94;5040597;28;20029;-81
2022/06/06 01:16:13;;;;;;;36.03;21.50;;;;;;;16.04;82.71;99653.28;5041968;28;20321;-83
2022/06/06 01:18:50;;;;;;;37.42;19.80;;;;;;;16.03;82.95;99654.41;5042972;28;20025;-83
2022/06/06 01:21:46;;;;;;;35.67;19.65;;;;;;;16.08;82.86;99652.38;5042506;28;20029;-83
2022/06/06 01:24:23;;;;;;;40.30;21.20;;;;;;;15.99;83.15;99652.22;5042839;28;20385;-82
2022/06/06 01:27:07;;;;;;;41.83;22.38;;;;;;;15.97;83.06;99648.13;5042430;28;20396;-84
2022/06/06 01:29:38;;;;;;;32.00;17.80;;;;;;;16.01;82.96;99654.66;5042320;28;20171;-83
2022/06/06 01:32:15;;;;;;;36.30;19.77;;;;;;;15.95;83.55;99651.19;5042798;28;21083;-83
2022/06/06 01:34:42;;;;;;;41.60;20.92;;;;;;;15.87;84.17;99654.66;5041710;28;20063;-82
2022/06/06 01:37:29;;;;;;;40.28;22.48;;;;;;;15.90;84.23;99653.25;5042590;28;20480;-83
2022/06/06 01:40:12;;;;;;;39.88;23.02;;;;;;;15.92;84.38;99659.25;5044007;28;20123;-82
2022/06/06 01:42:55;;;;;;;42.72;21.33;;;;;;;15.95;84.77;99659.44;5059274;28;20093;-82
2022/06/06 01:45:35;;;;;;;44.60;21.75;;;;;;;15.95;85.13;99653.13;5040785;28;20743;-81
2022/06/06 01:48:06;;;;;;;31.33;17.25;;;;;;;15.98;85.05;99650.59;5042334;28;20250;-82
2022/06/06 01:50:36;;;;;;;31.75;19.77;;;;;;;15.98;85.44;99653.34;5042157;28;20028;-82
2022/06/06 01:53:06;;;;;;;40.25;22.25;;;;;;;15.93;85.93;99653.44;5041955;28;20040;-82
2022/06/06 01:55:34;;;;;;;41.13;21.20;;;;;;;15.91;86.40;99649.34;5041880;28;20796;-82
2022/06/06 01:58:02;;;;;;;39.60;19.67;;;;;;;15.86;86.76;99648.34;5041652;28;20850;-81
2022/06/06 02:00:30;;;;;;;31.40;15.30;;;;;;;15.84;87.01;99655.28;5041659;28;20533;-81
2022/06/06 02:02:56;;;;;;;36.33;17.90;;;;;;;15.76;87.28;99657.59;5040955;28;20124;-82
2022/06/06 02:05:21;;;;;;;35.80;17.27;;;;;;;15.85;87.62;99662.38;5040986;28;20025;-80
2022/06/06 02:07:46;;;;;;;32.58;16.60;;;;;;;15.82;87.47;99657.50;5041255;28;20036;-82
2022/06/06 02:10:15;;;;;;;37.20;17.77;;;;;;;15.68;88.35;99658.28;5041610;28;20033;-80
2022/06/06 02:12:41;;;;;;;33.97;18.27;;;;;;;15.69;88.48;99657.16;5040893;28;20270;-82
2022/06/06 02:15:09;;;;;;;36.90;19.55;;;;;;;15.68;88.52;99658.28;5040960;28;20120;-81
2022/06/06 02:17:35;;;;;;;41.28;17.98;;;;;;;15.68;88.85;99658.28;5043753;28;20039;-81
2022/06/06 02:20:04;;;;;;;34.33;18.63;;;;;;;15.73;88.99;99663.69;5045267;28;20029;-82
2022/06/06 02:22:30;;;;;;;28.25;17.45;;;;;;;15.69;89.15;99670.09;5044514;28;20025;-82
2022/06/06 02:24:56;;;;;;;34.65;16.63;;;;;;;15.73;89.21;99669.19;5043873;28;20033;-82
2022/06/06 02:27:21;;;;;;;36.58;20.75;;;;;;;15.74;89.12;99667.25;5043290;28;20025;-81
2022/06/06 02:29:46;;;;;;;28.43;15.53;;;;;;;15.69;89.29;99664.59;5044583;28;20025;-80
2022/06/06 02:32:11;;;;;;;33.80;16.13;;;;;;;15.73;89.30;99669.19;5043825;28;20391;-81
2022/06/06 02:34:37;;;;;;;29.90;17.65;;;;;;;15.70;89.07;99683.53;5043959;28;20284;-81
2022/06/06 02:37:04;;;;;;;25.08;13.85;;;;;;;15.57;89.84;99678.81;5045083;28;20035;-81
2022/06/06 02:39:29;;;;;;;28.38;15.30;;;;;;;15.61;90.02;99685.34;5043930;28;20647;-82
2022/06/06 02:41:54;;;;;;;27.77;16.00;;;;;;;15.67;89.86;99683.31;5061743;28;20094;-80
2022/06/06 02:44:20;;;;;;;31.40;14.68;;;;;;;15.50;90.09;99685.50;5046938;28;20036;-81
2022/06/06 02:49:48;;;;;;;27.23;13.60;;;;;;;15.58;90.19;99674.97;5040218;28;20121;-80
2022/06/06 02:52:14;;;;;;;25.75;14.45;;;;;;;15.64;89.79;99673.75;5043862;28;20107;-81
2022/06/06 02:54:39;;;;;;;26.80;14.83;;;;;;;15.60;90.03;99672.72;5044039;28;20551;-82
2022/06/06 02:57:05;;;;;;;36.47;17.25;;;;;;;15.68;89.80;99674.75;5044181;28;20258;-81
2022/06/06 02:59:33;;;;;;;32.20;13.98;;;;;;;15.80;89.31;99673.47;5042833;28;20024;-81
2022/06/06 03:01:58;;;;;;;24.73;13.93;;;;;;;15.79;89.27;99674.59;5043235;28;20025;-82
2022/06/06 03:04:23;;;;;;;30.45;16.27;;;;;;;15.78;89.18;99673.78;5042887;28;20025;-81
2022/06/06 03:07:03;;;;;;;28.27;14.93;;;;;;;15.73;89.28;99666.44;5043718;28;20751;-80
2022/06/06 03:10:01;;;;;;;26.65;13.93;;;;;;;15.73;89.35;99666.44;5043928;28;20254;-82
2022/06/06 03:12:44;;;;;;;24.00;13.70;;;;;;;15.68;89.57;99663.78;5042403;28;20029;-81
2022/06/06 03:15:35;;;;;;;28.65;15.57;;;;;;;15.68;89.36;99663.78;5043553;28;20072;-82
2022/06/06 03:21:26;;;;;;;27.70;16.30;;;;;;;15.65;89.90;99669.88;5043102;28;20435;-82
2022/06/06 03:24:19;;;;;;;29.25;16.20;;;;;;;15.72;89.14;99670.28;5042827;28;20076;-82
2022/06/06 03:26:56;;;;;;;29.80;16.83;;;;;;;15.76;89.32;99663.06;5042073;28;20064;-82
2022/06/06 03:30:00;;;;;;;27.27;14.38;;;;;;;15.71;89.66;99673.34;5042544;28;20073;-81
2022/06/06 03:32:49;;;;;;;32.97;16.10;;;;;;;15.80;89.15;99678.97;5042121;28;20029;-81
2022/06/06 03:35:23;;;;;;;37.33;15.95;;;;;;;15.79;89.09;99671.84;5042102;28;20029;-81
2022/06/06 03:38:21;;;;;;;32.38;15.70;;;;;;;15.83;89.03;99667.38;5042544;28;20044;-81
2022/06/06 03:41:12;;;;;;;24.70;15.80;;;;;;;15.88;88.52;99668.09;5040638;28;20543;-81
2022/06/06 03:43:52;;;;;;;24.85;13.15;;;;;;;15.86;88.46;99670.31;5051036;28;20032;-81
2022/06/06 03:46:30;;;;;;;27.80;13.95;;;;;;;15.91;88.81;99677.66;5042384;28;20036;-81
2022/06/06 03:49:40;;;;;;;33.38;15.52;;;;;;;15.96;88.98;99669.34;5022330;28;20052;-81
2022/06/06 03:52:40;;;;;;;27.65;15.32;;;;;;;15.95;88.65;99670.44;5020037;28;20048;-82
2022/06/06 03:55:20;;;;;;;30.58;15.80;;;;;;;15.87;88.52;99674.72;5022502;28;20072;-82
2022/06/06 03:57:47;;;;;;;28.42;15.73;;;;;;;15.81;88.70;99677.84;5041665;28;20128;-81
2022/06/06 04:00:14;;;;;;;26.15;14.15;;;;;;;15.82;88.89;99677.56;5041976;28;20039;-79
2022/06/06 04:02:42;;;;;;;24.60;12.82;;;;;;;15.85;88.64;99673.38;5041578;28;20112;-82
2022/06/06 04:05:15;;;;;;;28.00;12.88;;;;;;;15.88;88.36;99681.03;5040631;28;20029;-81
2022/06/06 04:07:41;;;;;;;27.92;11.10;;;;;;;15.84;88.45;99691.81;5042015;28;20037;-81
2022/06/06 04:10:07;;;;;;;30.33;12.63;;;;;;;15.82;88.20;99680.31;5042003;28;20029;-80
2022/06/06 04:13:10;;;;;;;27.65;12.55;;;;;;;15.75;88.60;99683.44;5041105;28;20051;-82
2022/06/06 04:15:55;;;;;;;19.63;11.95;;;;;;;15.75;88.96;99688.94;4996005;28;1301680;-82
2022/06/06 04:19:07;;;;;;;23.30;12.68;;;;;;;15.70;88.56;99689.00;5042667;28;20483;-81
2022/06/06 04:22:02;;;;;;;19.90;10.93;;;;;;;15.68;88.19;99687.72;5043452;28;20118;-82
2022/06/06 04:25:01;;;;;;;18.08;9.38;;;;;;;15.66;87.96;99689.94;5043126;28;20032;-81
2022/06/06 04:28:02;;;;;;;18.42;9.52;;;;;;;15.73;87.78;99691.19;5042814;28;20029;-81
2022/06/06 04:30:37;;;;;;;17.10;9.15;;;;;;;15.75;87.00;99697.19;5042948;28;20033;-82
2022/06/06 04:33:02;;;;;;;17.85;7.78;;;;;;;15.80;86.77;99704.53;5042368;28;20475;-81
2022/06/06 04:35:55;;;;;;;14.13;6.97;;;;;;;15.83;86.78;99708.59;5043283;28;20083;-81
2022/06/06 04:38:51;;;;;;;16.38;7.38;;;;;;;15.74;86.76;99703.78;5042252;28;20083;-82
2022/06/06 04:41:29;;;;;;;15.32;7.60;;;;;;;15.80;86.55;99704.53;5054604;28;20082;-81
2022/06/06 04:44:00;;;;;;;13.15;7.15;;;;;;;15.75;86.18;99697.19;5049650;28;20053;-82
2022/06/06 04:46:44;;;;;;;14.10;8.07;;;;;;;15.83;86.45;99705.84;5042602;28;20044;-81
2022/06/06 04:49:11;;;;;;;30.75;8.10;;;;;;;15.72;86.05;99706.03;5042348;28;20037;-81
2022/06/06 04:51:39;;;;;;;12.68;7.38;;;;;;;15.73;85.70;99699.41;5043113;28;20369;-82
2022/06/06 04:54:17;;;;;;;12.07;6.65;;;;;;;15.81;85.56;99700.66;5041592;28;20052;-82
2022/06/06 04:56:43;;;;;;;11.93;5.97;;;;;;;15.90;85.08;99709.03;5042988;28;20025;-82
2022/06/06 04:59:11;;;;;;;12.82;6.85;;;;;;;15.89;85.41;99712.88;5042824;28;20495;-82
2022/06/06 05:01:39;;;;;;;15.50;7.97;;;;;;;15.98;85.29;99710.28;5041436;28;20125;-81
2022/06/06 05:04:04;;;;;;;14.13;6.80;;;;;;;15.97;85.06;99714.13;5040504;28;20037;-83
2022/06/06 05:06:42;;;;;;;15.80;6.68;;;;;;;15.92;84.92;99717.78;5042143;28;20078;-81
2022/06/06 05:09:16;;;;;;;13.90;5.45;;;;;;;15.91;84.80;99715.31;5042277;28;20037;-82
2022/06/06 05:11:50;;;;;;;13.10;5.97;;;;;;;15.73;84.88;99721.41;5042395;28;20094;-80
2022/06/06 05:14:43;;;;;;;10.57;6.00;;;;;;;15.83;84.77;99712.16;5041271;28;20053;-80
2022/06/06 05:17:35;;;;;;;16.80;8.35;;;;;;;15.84;84.48;99713.00;5041948;28;20033;-82
2022/06/06 05:20:09;;;;;;;12.98;6.28;;;;;;;15.69;84.24;99723.13;5042025;28;20057;-82
2022/06/06 05:22:56;;;;;;;15.40;8.20;;;;;;;15.78;84.15;99723.25;5042205;28;20524;-80
2022/06/06 05:25:28;;;;;;;11.98;5.72;;;;;;;15.80;83.69;99728.44;5042176;28;20044;-82
2022/06/06 05:28:11;;;;;;;10.75;6.25;;;;;;;15.81;82.94;99721.81;5041588;28;20387;-81
2022/06/06 05:30:55;;;;;;;14.00;6.18;;;;;;;15.94;82.63;99721.06;5042065;28;20037;-82
2022/06/06 05:33:39;;;;;;;13.40;7.75;;;;;;;15.98;81.73;99727.59;5041525;28;20044;-82
2022/06/06 05:36:35;;;;;;;11.88;5.65;;;;;;;15.90;82.16;99735.69;5041455;28;20801;-82
2022/06/06 05:39:08;;;;;;;10.55;5.57;;;;;;;15.98;81.70;99727.59;5040848;28;20033;-81
2022/06/06 05:41:46;;;;;;;11.35;5.60;;;;;;;15.93;80.92;99740.59;5056751;28;20029;-81
2022/06/06 05:44:25;;;;;;;14.50;6.38;;;;;;;15.98;80.72;99733.09;5046170;28;20041;-82
2022/06/06 05:47:12;;;;;;;12.63;5.25;;;;;;;16.01;80.83;99736.34;5040660;28;20029;-82
2022/06/06 05:49:54;;;;;;;13.20;7.03;;;;;;;15.92;80.42;99737.03;5037969;28;20138;-81
2022/06/06 05:53:08;;;;;;;12.52;5.53;;;;;;;15.81;80.04;99749.31;5038624;28;20044;-83
2022/06/06 05:56:06;;;;;;;10.15;4.90;;;;;;;15.87;79.71;99742.63;5031216;28;20045;-82
2022/06/06 05:59:15;;;;;;;12.65;5.55;;;;;;;15.99;79.25;99750.38;5040687;28;20051;-81
2022/06/06 06:02:04;;;;;;;10.45;5.53;;;;;;;15.86;78.98;99746.50;5040470;28;20052;-82
2022/06/06 06:04:43;;;;;;;12.05;6.13;;;;;;;15.84;79.29;99746.81;5041668;28;20043;-81
2022/06/06 06:07:21;;;;;;;10.25;5.28;;;;;;;15.86;79.06;99741.00;5028474;28;20116;-80
2022/06/06 06:10:01;;;;;;;12.10;4.75;;;;;;;15.86;79.54;99747.28;5038167;28;20036;-82
2022/06/06 06:13:02;;;;;;;9.65;5.30;;;;;;;15.85;78.07;99744.84;5037675;28;20036;-83
2022/06/06 06:15:32;;;;;;;20.85;5.70;;;;;;;15.77;78.28;99740.84;5038454;28;20506;-80
2022/06/06 06:18:01;;;;;;;9.65;4.75;;;;;;;15.90;77.98;99753.03;5038259;28;20132;-80
2022/06/06 06:20:31;;;;;;;11.77;5.53;;;;;;;15.88;78.79;99741.50;5038190;28;20068;-82
2022/06/06 06:23:02;;;;;;;13.57;5.65;;;;;;;15.85;78.57;99745.66;5039216;28;20036;-80
2022/06/06 06:25:32;;;;;;;14.05;6.82;;;;;;;15.84;78.96;99745.97;5039359;28;20127;-82
2022/06/06 06:28:03;;;;;;;11.65;5.20;;;;;;;15.72;77.44;99739.00;5036892;28;20043;-81
2022/06/06 06:30:38;;;;;;;10.50;4.75;;;;;;;15.64;77.01;99750.69;5038435;28;20032;-81
2022/06/06 06:33:29;;;;;;;10.55;4.50;;;;;;;15.70;76.87;99760.47;5036551;28;20041;-79
2022/06/06 06:35:57;;;;;;;9.90;5.30;;;;;;;15.69;77.13;99753.34;5036294;28;20035;-81
2022/06/06 06:38:51;;;;;;;7.95;3.22;;;;;;;15.83;76.74;99752.56;5039497;28;20072;-82
2022/06/06 06:41:35;;;;;;;7.63;4.38;;;;;;;15.92;76.67;99750.78;5036758;28;20460;-81
2022/06/06 06:44:08;;;;;;;8.45;3.63;;;;;;;15.84;75.88;99759.72;5036003;28;20025;-81
2022/06/06 06:46:40;;;;;;;8.98;3.70;;;;;;;15.77;74.69;99760.09;5039444;28;20036;-80
2022/06/06 06:49:21;;;;;;;13.52;4.30;;;;;;;15.73;74.52;99756.31;5031497;28;20050;-82
2022/06/06 06:52:15;;;;;;;8.38;4.60;;;;;;;15.68;75.03;99759.94;5035091;28;20035;-81
2022/06/06 06:55:06;;;;;;;10.40;4.40;;;;;;;15.69;74.72;99769.84;5036285;28;20039;-81
2022/06/06 06:57:37;;;;;;;8.20;4.20;;;;;;;15.75;74.62;99763.16;5036169;28;20278;-83
2022/06/06 07:00:06;;;;;;;7.28;4.57;;;;;;;15.86;74.04;99769.28;5036692;28;20076;-82
2022/06/06 07:08:50;;;;;;;9.05;3.83;;;;;;;16.11;73.67;99774.66;5042178;28;20036;-81
2022/06/06 07:11:44;;;;;;;7.38;3.40;;;;;;;16.24;74.02;99788.75;5041071;28;20071;-81
2022/06/06 07:14:22;;;;;;;10.45;4.35;;;;;;;16.19;73.47;99779.47;5041108;28;20056;-84
2022/06/06 07:16:53;;;;;;;8.15;3.75;;;;;;;16.20;72.67;99783.88;5041769;28;20033;-85
2022/06/06 07:19:22;;;;;;;8.27;3.42;;;;;;;16.18;72.61;99783.34;5042338;28;20132;-84
2022/06/06 07:21:49;;;;;;;7.05;4.30;;;;;;;16.30;72.72;99785.63;5041095;28;20380;-81
2022/06/06 07:24:21;;;;;;;6.70;3.55;;;;;;;16.31;72.18;99780.94;5040260;28;20484;-80
2022/06/06 07:27:00;;;;;;;23.73;4.82;;;;;;;16.03;70.75;99778.94;5040880;28;20404;-81
2022/06/06 07:29:26;;;;;;;7.78;3.17;;;;;;;16.00;71.18;99776.78;5041095;28;20108;-80
2022/06/06 07:32:09;;;;;;;9.05;3.10;;;;;;;16.15;71.00;99775.69;5040579;28;20974;-80
2022/06/06 07:35:02;;;;;;;5.90;3.60;;;;;;;16.30;70.35;99784.81;5040136;28;20040;-80
2022/06/06 07:37:55;;;;;;;7.63;3.53;;;;;;;16.19;69.76;99793.22;5039778;28;20086;-81
2022/06/06 07:40:54;;;;;;;7.22;2.95;;;;;;;16.06;69.51;99789.34;5044799;28;20047;-81
2022/06/06 07:43:28;;;;;;;6.65;3.10;;;;;;;16.16;69.04;99787.53;5051157;28;20061;-81
2022/06/06 07:45:59;;;;;;;;;;;;;;;16.21;68.61;99799.25;5040233;28;20071;-81
2022/06/06 07:48:44;;;;;;;7.05;2.08;;;;;;;16.22;68.59;99789.88;5040138;28;19917;-80
2022/06/06 07:51:33;;;;;;;5.88;2.88;;;;;;;16.34;67.74;99788.56;5039097;28;20081;-81
2022/06/06 07:54:37;;;;;;;5.43;2.20;;;;;;;16.40;68.48;99781.88;5040127;28;20186;-81
2022/06/06 07:57:18;;;;;;;11.85;2.05;;;;;;;16.44;67.99;99785.63;4977169;28;20101;-80
2022/06/06 07:59:54;;;;;;;7.10;2.50;;;;;;;16.42;67.90;99776.88;5015214;28;20106;-80
2022/06/06 08:02:58;;;;;;;4.97;2.40;;;;;;;16.52;67.61;99777.78;5019607;28;20266;-81
2022/06/06 08:05:40;;;;;;;4.32;1.48;;;;;;;16.64;66.86;99777.28;5036252;28;20028;-81
2022/06/06 08:08:28;;;;;;;4.53;1.58;;;;;;;16.64;65.84;99769.84;5057995;28;20033;-81
2022/06/06 08:10:53;;;;;;;6.10;1.80;;;;;;;16.82;66.13;99769.25;5059182;28;20544;-81
2022/06/06 08:13:29;;;;;;;6.03;2.13;;;;;;;16.84;65.41;99767.78;5050302;28;20033;-81
2022/06/06 08:19:12;;;;;;;5.53;2.50;;;;;;;16.91;65.19;99765.47;5018451;28;20048;-81
2022/06/06 08:21:43;;;;;;;3.78;1.90;;;;;;;17.12;63.59;99764.19;5020267;28;20033;-80
2022/06/06 08:24:32;;;;;;;3.38;1.58;;;;;;;17.19;62.75;99772.09;5049739;28;20055;-80
2022/06/06 08:27:01;;;;;;;5.97;2.17;;;;;;;17.18;62.94;99765.75;5059683;28;20028;-81
2022/06/06 08:29:28;;;;;;;6.28;2.05;;;;;;;17.23;62.69;99771.13;5059712;28;20098;-80
2022/06/06 08:31:54;;;;;;;4.70;2.13;;;;;;;17.19;62.99;99766.56;5058668;28;20036;-81
2022/06/06 08:34:21;;;;;;;5.63;1.80;;;;;;;17.30;62.99;99767.97;5041879;28;20037;-81
2022/06/06 08:37:17;;;;;;;4.93;1.85;;;;;;;17.23;62.75;99759.28;5039578;28;20095;-81
2022/06/06 08:40:20;;;;;;;3.72;1.77;;;;;;;17.22;61.94;99763.19;5038540;28;20148;-80
2022/06/06 08:43:03;;;;;;;2.72;1.48;;;;;;;17.20;62.27;99763.50;4995497;28;20034;-81
2022/06/06 08:45:51;;;;;;;3.10;1.27;;;;;;;17.27;61.52;99763.06;4996640;28;20037;-82
2022/06/06 08:49:00;;;;;;;5.35;1.50;;;;;;;17.41;60.24;99763.00;5010536;28;20041;-81
2022/06/06 08:51:48;;;;;;;2.70;1.40;;;;;;;17.69;60.47;99762.09;5019438;28;20037;-80
2022/06/06 08:54:32;;;;;;;6.38;1.65;;;;;;;17.73;58.60;99761.19;5034452;28;20029;-79
2022/06/06 08:57:16;;;;;;;3.50;1.83;;;;;;;17.74;58.22;99759.22;5039328;28;20559;-79
2022/06/06 09:00:11;;;;;;;5.00;0.93;;;;;;;17.93;58.61;99766.47;5039114;28;20043;-81
2022/06/06 09:02:58;;;;;;;3.28;1.15;;;;;;;18.05;57.16;99766.72;5038751;28;20484;-81
2022/06/06 09:05:33;;;;;;;3.22;1.48;;;;;;;18.22;57.62;99767.16;5038988;28;20614;-81
2022/06/06 09:08:23;;;;;;;2.78;1.15;;;;;;;18.25;57.06;99756.31;5039695;28;20133;-81
2022/06/06 09:11:26;;;;;;;3.67;1.50;;;;;;;18.54;56.98;99757.72;5040033;28;20124;-81
2022/06/06 09:14:14;;;;;;;2.22;1.00;;;;;;;18.86;55.99;99752.13;5038260;28;20605;-80
2022/06/06 09:17:11;;;;;;;1.98;0.80;;;;;;;18.76;54.81;99767.06;5038283;28;20403;-82
2022/06/06 09:19:48;;;;;;;4.07;1.52;;;;;;;18.75;55.74;99761.84;5039288;28;20036;-81
2022/06/06 09:23:05;;;;;;;3.28;0.90;;;;;;;18.75;55.65;99762.66;5038633;28;20116;-81
2022/06/06 09:26:00;;;;;;;4.60;1.75;;;;;;;18.91;55.00;99759.47;5015226;28;20203;-81
2022/06/06 09:28:43;;;;;;;2.85;1.60;;;;;;;18.46;55.41;99774.25;5015588;28;20044;-80
2022/06/06 09:32:05;;;;;;;3.33;1.20;;;;;;;18.58;55.65;99763.41;5017901;28;20487;-80
2022/06/06 09:34:47;;;;;;;1.70;0.90;;;;;;;18.31;55.52;99771.59;4977350;28;20050;-80
2022/06/06 09:37:15;;;;;;;2.25;1.10;;;;;;;18.24;56.39;99771.25;4976297;28;20096;-82
2022/06/06 09:40:20;;;;;;;4.18;1.30;;;;;;;18.45;55.40;99758.84;5006276;28;20042;-82
2022/06/06 09:43:03;;;;;;;2.95;1.00;;;;;;;18.62;55.70;99763.59;5022001;28;20033;-82
2022/06/06 09:45:30;;;;;;;3.22;1.10;;;;;;;18.47;55.16;99768.41;5038961;28;20555;-81
2022/06/06 09:48:23;;;;;;;1.85;0.90;;;;;;;18.60;55.28;99774.13;5036342;28;20131;-82
2022/06/06 09:50:55;;;;;;;3.63;1.60;;;;;;;18.27;55.15;99769.78;5037525;28;20492;-81
2022/06/06 09:53:45;;;;;;;1.80;0.98;;;;;;;18.15;56.01;99768.41;5037133;28;20040;-81
2022/06/06 09:59:56;;;;;;;3.53;1.35;;;;;;;17.99;56.94;99770.75;5037931;28;20067;-81
2022/06/06 10:02:50;;;;;;;4.10;1.48;;;;;;;17.95;63.00;99769.75;5036707;28;20032;-79
2022/06/06 10:05:43;;;;;;;11.05;1.60;;;;;;;17.96;63.87;99777.69;5037479;28;20067;-80
2022/06/06 10:08:48;;;;;;;4.47;1.00;;;;;;;18.15;65.11;99767.56;5037789;28;20432;-80
2022/06/06 10:11:33;;;;;;;3.70;1.20;;;;;;;18.11;65.17;99772.91;5038290;28;20036;-80
2022/06/06 10:14:29;;;;;;;2.67;1.15;;;;;;;18.20;64.41;99775.75;5037564;28;20041;-80
2022/06/06 10:17:20;;;;;;;2.83;1.27;;;;;;;18.18;64.53;99775.25;5037861;28;20033;-80
2022/06/06 10:20:12;;;;;;;2.88;1.08;;;;;;;18.08;64.86;99766.06;5017581;28;20045;-82
2022/06/06 10:22:52;;;;;;;4.80;1.52;;;;;;;18.47;64.33;99759.34;5037010;28;20029;-81
2022/06/06 10:25:39;;;;;;;4.47;1.67;;;;;;;18.33;64.30;99760.22;5037425;28;20044;-80
2022/06/06 10:28:39;;;;;;;2.95;1.30;;;;;;;18.35;64.05;99748.88;5038071;28;20495;-81
2022/06/06 10:31:13;;;;;;;4.22;0.95;;;;;;;18.45;64.86;99751.34;5032546;28;20128;-80
2022/06/06 10:33:55;;;;;;;2.88;1.00;;;;;;;19.03;64.22;99750.53;5037536;28;20041;-81
2022/06/06 10:36:32;;;;;;;5.45;1.00;;;;;;;19.35;62.48;99745.72;5037373;28;20415;-81
2022/06/06 10:39:11;;;;;;;6.30;1.50;;;;;;;19.50;60.15;99740.84;5041828;28;20044;-81
2022/06/06 10:41:57;;;;;;;2.38;0.68;;;;;;;19.63;59.21;99741.00;5056888;28;20031;-81
2022/06/06 10:44:44;;;;;;;2.85;0.88;;;;;;;19.89;58.58;99740.94;5042730;28;20073;-81
2022/06/06 10:47:59;;;;;;;2.47;0.73;;;;;;;19.42;57.78;99736.13;5041619;28;20114;-81
2022/06/06 10:51:36;;;;;;;3.60;1.17;;;;;;;19.43;56.61;99724.75;5027275;28;20055;-81
2022/06/06 10:53:56;;;;;;;2.75;1.05;;;;;;;19.93;55.15;99730.03;5040984;28;20098;-81
2022/06/06 10:56:43;;;;;;;1.17;0.70;;;;;;;20.01;54.13;99725.63;5041423;28;20055;-81
2022/06/06 10:59:46;;;;;;;1.90;0.95;;;;;;;19.52;54.02;99726.69;5041756;28;20392;-81
2022/06/06 11:02:42;;;;;;;2.05;1.15;;;;;;;19.35;53.42;99728.31;5041173;28;20450;-81
2022/06/06 11:05:39;;;;;;;2.13;1.00;;;;;;;19.50;53.49;99712.38;5021090;28;20034;-81
2022/06/06 11:08:23;;;;;;;4.97;0.50;;;;;;;19.53;53.14;99717.25;5021541;28;20026;-80
2022/06/06 11:11:07;;;;;;;;;;;;;;;19.20;52.67;99705.56;5021771;28;20064;-79
2022/06/06 11:13:35;;;;;;;1.80;0.50;;;;;;;19.17;52.41;99710.94;5030990;28;19980;-81
2022/06/06 11:16:34;;;;;;;12.43;1.98;;;;;;;19.23;52.27;99713.22;5041298;28;20351;-82
2022/06/06 11:19:25;;;;;;;2.28;0.45;;;;;;;19.75;51.92;99723.75;5020709;28;20072;-80
2022/06/06 11:22:16;;;;;;;2.30;0.98;;;;;;;19.58;52.01;99725.38;5021561;28;20120;-81
2022/06/06 11:25:11;;;;;;;1.38;0.50;;;;;;;19.25;51.02;99719.22;5039211;28;20033;-81
2022/06/06 11:27:55;;;;;;;2.40;0.47;;;;;;;19.09;51.58;99715.28;5041296;28;20041;-80
2022/06/06 11:30:27;;;;;;;;;;;;;;;19.00;50.44;99710.56;5041499;28;20033;-81
2022/06/06 11:33:19;;;;;;;2.40;0.40;;;;;;;19.13;50.61;99716.25;5040235;28;20004;-80
2022/06/06 11:36:05;;;;;;;1.02;0.50;;;;;;;19.16;49.68;99720.38;5040608;28;20041;-81
2022/06/06 11:38:57;;;;;;;2.10;0.70;;;;;;;19.23;50.74;99710.44;5040979;28;20024;-82
2022/06/06 11:41:48;;;;;;;2.88;0.68;;;;;;;19.60;49.86;99712.88;5054525;28;20284;-81
2022/06/06 11:44:31;;;;;;;2.17;1.17;;;;;;;19.80;49.97;99715.25;5043047;28;20377;-82
2022/06/06 11:47:41;;;;;;;1.73;0.40;;;;;;;20.21;49.48;99713.06;5040386;28;20045;-81
2022/06/06 11:50:28;;;;;;;3.33;0.30;;;;;;;20.69;49.10;99709.38;5041095;28;20416;-81
2022/06/06 11:53:02;;;;;;;4.70;0.88;;;;;;;20.14;49.21;99718.28;5039987;28;20143;-83
2022/06/06 11:55:43;;;;;;;3.90;0.55;;;;;;;19.69;50.26;99723.91;5040401;28;20025;-82
2022/06/06 11:58:42;;;;;;;2.88;0.70;;;;;;;19.52;52.17;99726.69;5040609;28;20032;-81
2022/06/06 12:01:36;;;;;;;2.38;0.85;;;;;;;19.16;52.71;99732.22;5039948;28;20037;-82
2022/06/06 12:04:39;;;;;;;1.33;0.93;;;;;;;19.42;52.11;99728.66;5039754;28;20035;-81
2022/06/06 12:07:30;;;;;;;1.73;1.05;;;;;;;19.34;52.81;99738.56;5040247;28;20033;-81
2022/06/06 12:10:07;;;;;;;3.28;1.40;;;;;;;19.64;52.15;99734.31;5039909;28;20040;-81
2022/06/06 12:12:44;;;;;;;1.27;0.85;;;;;;;19.28;52.74;99741.81;5040123;28;20033;-81
2022/06/06 12:15:20;;;;;;;3.40;1.17;;;;;;;18.89;53.38;99762.56;5031612;28;20063;-81
2022/06/06 12:18:10;;;;;;;3.85;0.90;;;;;;;18.43;55.93;99756.38;5034907;28;20047;-81
2022/06/06 12:21:07;;;;;;;2.17;1.08;;;;;;;18.20;59.98;99764.72;5028028;28;20079;-80
2022/06/06 12:24:00;;;;;;;3.55;1.00;;;;;;;18.24;63.01;99757.44;5029323;28;20545;-79
2022/06/06 12:26:51;;;;;;;1.42;1.05;;;;;;;18.38;62.59;99759.28;5039654;28;20078;-80
2022/06/06 12:29:35;;;;;;;4.03;1.45;;;;;;;19.21;61.85;99739.53;5039230;28;20060;-80
2022/06/06 12:32:23;;;;;;;;;;;;;;;19.45;62.13;99733.53;5037536;28;20315;-80
2022/06/06 12:34:57;;;;;;;1.92;0.80;;;;;;;19.91;61.36;99733.13;5019313;28;20160;-80
2022/06/06 12:37:45;;;;;;;1.77;0.80;;;;;;;20.11;58.84;99730.84;5019631;28;20032;-81
2022/06/06 12:40:30;;;;;;;1.55;0.45;;;;;;;20.54;57.81;99722.69;5025966;28;20079;-80
2022/06/06 12:43:10;;;;;;;2.88;0.77;;;;;;;20.74;55.99;99711.97;5053104;28;20043;-81
2022/06/06 12:45:41;;;;;;;1.85;0.60;;;;;;;20.87;55.13;99707.31;5037975;28;20045;-81
2022/06/06 12:48:27;;;;;;;0.90;0.55;;;;;;;20.92;55.61;99711.84;5038804;28;20512;-80
2022/06/06 12:51:39;;;;;;;3.42;0.82;;;;;;;21.09;54.86;99706.19;5039883;28;20198;-80